Time;durP1;ratioP1;P1;durP2;ratioP2;P2;SDS_P1;SDS_P2;PMS_P1;PMS_P2;Temp;Humidity;BMP_temperature;BMP_pressure;BME280_temperature;BME280_humidity;BME280_pressure;Samples;Min_cycle;Max_cycle;Signal;HPM_P1;HPM_P2
2021/10/01 00:01:15;;;;;;;5.78;1.40;;;13.80;72.90;;;;;;5038635;28;20480;-76
2021/10/01 00:03:41;;;;;;;7.15;1.70;;;13.80;73.10;;;;;;5038315;28;20025;-76
2021/10/01 00:06:07;;;;;;;7.68;1.50;;;13.90;72.90;;;;;;5038584;28;20033;-76
2021/10/01 00:08:33;;;;;;;5.65;1.48;;;13.90;73.20;;;;;;5032230;28;20469;-75
2021/10/01 00:10:59;;;;;;;6.20;1.40;;;13.90;72.90;;;;;;5037459;28;20057;-75
2021/10/01 00:13:26;;;;;;;5.65;1.50;;;13.90;72.70;;;;;;5038184;28;20053;-76
2021/10/01 00:15:53;;;;;;;3.90;1.13;;;14.00;72.20;;;;;;5038257;28;20450;-75
2021/10/01 00:18:19;;;;;;;4.10;1.30;;;14.00;72.10;;;;;;5038001;28;20018;-76
2021/10/01 00:20:46;;;;;;;5.70;1.90;;;14.00;72.60;;;;;;5038283;28;20025;-75
2021/10/01 00:23:12;;;;;;;6.32;1.60;;;14.10;72.60;;;;;;5038095;28;20528;-75
2021/10/01 00:25:38;;;;;;;6.43;1.50;;;14.10;72.80;;;;;;5038064;28;20071;-76
2021/10/01 00:28:04;;;;;;;5.15;1.77;;;14.10;73.00;;;;;;5037963;28;20049;-76
2021/10/01 00:30:30;;;;;;;7.72;1.70;;;14.20;72.60;;;;;;5038132;28;20025;-75
2021/10/01 00:32:58;;;;;;;8.60;2.00;;;14.20;72.80;;;;;;5038013;28;20029;-77
2021/10/01 00:35:24;;;;;;;5.68;1.10;;;14.30;73.40;;;;;;5037762;28;20079;-76
2021/10/01 00:37:50;;;;;;;5.32;1.40;;;14.30;73.80;;;;;;5037667;28;20025;-75
2021/10/01 00:40:16;;;;;;;7.07;1.48;;;14.30;73.80;;;;;;5038031;28;20075;-76
2021/10/01 00:42:42;;;;;;;4.47;1.55;;;14.30;74.30;;;;;;5037602;28;20066;-76
2021/10/01 00:45:08;;;;;;;4.65;1.40;;;14.30;73.70;;;;;;5037838;28;20464;-76
2021/10/01 00:47:34;;;;;;;6.97;1.85;;;14.30;74.20;;;;;;5037602;28;20053;-76
2021/10/01 00:50:00;;;;;;;7.65;1.50;;;14.30;73.50;;;;;;5037634;28;20500;-76
2021/10/01 00:52:26;;;;;;;5.40;1.58;;;14.40;74.30;;;;;;5037528;28;20028;-76
2021/10/01 00:54:55;;;;;;;6.38;1.42;;;14.40;73.90;;;;;;5037699;28;20030;-75
2021/10/01 00:57:21;;;;;;;7.07;1.40;;;14.40;74.40;;;;;;5037799;28;20028;-75
2021/10/01 00:59:47;;;;;;;3.60;1.40;;;14.40;73.90;;;;;;5037686;28;20484;-76
2021/10/01 01:02:13;;;;;;;6.85;1.50;;;14.40;74.20;;;;;;5037344;28;20026;-75
2021/10/01 01:04:43;;;;;;;7.18;1.63;;;14.40;73.50;;;;;;5037470;28;20022;-76
2021/10/01 01:07:17;;;;;;;9.50;1.60;;;14.40;73.50;;;;;;5037585;28;20030;-75
2021/10/01 01:10:35;;;;;;;7.40;1.45;;;14.40;73.40;;;;;;5032559;28;20032;-76
2021/10/01 01:13:20;;;;;;;8.10;1.73;;;14.40;74.20;;;;;;5028544;28;20472;-76
2021/10/01 01:15:55;;;;;;;5.28;1.50;;;14.40;73.70;;;;;;5037622;28;20033;-75
2021/10/01 01:18:35;;;;;;;4.75;1.40;;;14.40;73.80;;;;;;5036943;28;20163;-76
2021/10/01 01:21:03;;;;;;;3.40;1.20;;;14.40;74.10;;;;;;5037358;28;20018;-76
2021/10/01 01:23:50;;;;;;;8.52;1.85;;;14.50;74.10;;;;;;5037352;28;20041;-75
2021/10/01 01:26:39;;;;;;;7.32;1.50;;;14.50;74.60;;;;;;5037156;28;20492;-76
2021/10/01 01:29:27;;;;;;;8.68;1.50;;;14.50;74.50;;;;;;5037393;28;20064;-76
2021/10/01 01:31:55;;;;;;;5.07;1.25;;;14.50;74.90;;;;;;5037291;28;20053;-76
2021/10/01 01:34:48;;;;;;;5.35;1.48;;;14.50;74.40;;;;;;5036833;28;20089;-76
2021/10/01 01:37:24;;;;;;;3.17;1.00;;;14.50;74.90;;;;;;5031209;28;20069;-78
2021/10/01 01:39:51;;;;;;;9.20;2.03;;;14.60;74.70;;;;;;5037335;28;20029;-78
2021/10/01 01:42:18;;;;;;;5.95;1.67;;;14.60;75.70;;;;;;5036999;28;20033;-75
2021/10/01 01:44:46;;;;;;;7.38;1.73;;;14.50;75.10;;;;;;5037155;28;20017;-76
2021/10/01 01:47:13;;;;;;;6.72;1.73;;;14.50;75.10;;;;;;5035920;28;20044;-76
2021/10/01 01:49:42;;;;;;;5.55;1.50;;;14.50;75.40;;;;;;5036951;28;20025;-76
2021/10/01 01:52:08;;;;;;;8.45;1.77;;;14.50;75.60;;;;;;5036924;28;20049;-76
2021/10/01 01:54:35;;;;;;;7.65;1.73;;;14.50;76.10;;;;;;5037269;28;20034;-76
2021/10/01 01:57:02;;;;;;;6.65;1.48;;;14.50;76.00;;;;;;5036880;28;20066;-76
2021/10/01 01:59:30;;;;;;;5.72;1.42;;;14.50;76.50;;;;;;5037271;28;20037;-76
2021/10/01 02:01:57;;;;;;;5.78;1.38;;;14.50;76.00;;;;;;5036744;28;20376;-76
2021/10/01 02:04:25;;;;;;;4.28;1.52;;;14.60;75.90;;;;;;5036912;28;20036;-76
2021/10/01 02:06:52;;;;;;;5.55;1.40;;;14.60;76.00;;;;;;5036818;28;20017;-76
2021/10/01 02:09:20;;;;;;;7.00;1.60;;;14.60;76.50;;;;;;5031820;28;20033;-76
2021/10/01 02:11:47;;;;;;;5.85;1.35;;;14.60;76.10;;;;;;5036939;28;20029;-75
2021/10/01 02:14:18;;;;;;;4.82;1.58;;;14.60;75.60;;;;;;5036791;28;20036;-76
2021/10/01 02:16:46;;;;;;;7.35;1.42;;;14.60;76.10;;;;;;5036600;28;20021;-76
2021/10/01 02:19:13;;;;;;;6.53;1.58;;;14.70;76.50;;;;;;5036580;28;20025;-76
2021/10/01 02:21:40;;;;;;;4.82;1.30;;;14.70;76.60;;;;;;5036884;28;20025;-76
2021/10/01 02:24:06;;;;;;;5.47;1.20;;;14.70;76.50;;;;;;5036602;28;20481;-76
2021/10/01 02:26:38;;;;;;;10.20;1.75;;;14.70;75.90;;;;;;5036828;28;20036;-76
2021/10/01 02:29:10;;;;;;;;;;;14.70;75.80;;;;;;5037250;28;20034;-76
2021/10/01 02:31:50;;;;;;;9.07;1.40;;;14.70;76.20;;;;;;5038975;28;19905;-76
2021/10/01 02:34:21;;;;;;;6.43;1.63;;;14.70;76.10;;;;;;5036182;28;20029;-76
2021/10/01 02:36:48;;;;;;;6.53;1.70;;;14.80;76.30;;;;;;5040048;28;20480;-76
2021/10/01 02:39:13;;;;;;;7.47;2.42;;;14.70;75.60;;;;;;5039928;28;20268;-75
2021/10/01 02:41:39;;;;;;;8.07;1.40;;;14.70;75.60;;;;;;5039126;28;20116;-76
2021/10/01 02:44:06;;;;;;;6.72;1.88;;;14.70;76.40;;;;;;5039827;28;20017;-76
2021/10/01 02:46:32;;;;;;;6.00;2.20;;;14.70;75.70;;;;;;5040186;28;20032;-77
2021/10/01 02:49:00;;;;;;;7.95;1.70;;;14.70;76.20;;;;;;5039688;28;20026;-76
2021/10/01 02:51:29;;;;;;;7.70;1.77;;;14.60;76.10;;;;;;5039952;28;20113;-75
2021/10/01 02:54:11;;;;;;;8.88;2.35;;;14.60;76.50;;;;;;5039697;28;20499;-76
2021/10/01 02:56:49;;;;;;;7.15;2.50;;;14.60;76.50;;;;;;5039896;28;20029;-75
2021/10/01 02:59:17;;;;;;;8.00;1.80;;;14.60;76.80;;;;;;5039912;28;20021;-76
2021/10/01 03:01:45;;;;;;;4.25;1.25;;;14.60;76.70;;;;;;5038601;28;20022;-76
2021/10/01 03:04:12;;;;;;;6.18;1.48;;;14.50;76.80;;;;;;5039504;28;20036;-76
2021/10/01 03:06:45;;;;;;;5.07;1.60;;;14.60;76.60;;;;;;5039608;28;20535;-75
2021/10/01 03:09:13;;;;;;;7.20;1.50;;;14.50;76.60;;;;;;5034054;28;20039;-75
2021/10/01 03:11:40;;;;;;;8.15;1.48;;;14.60;77.20;;;;;;5039700;28;20025;-76
2021/10/01 03:14:09;;;;;;;7.95;1.50;;;14.60;76.90;;;;;;5039528;28;20025;-76
2021/10/01 03:16:36;;;;;;;5.15;1.50;;;14.60;76.70;;;;;;5039331;28;20029;-76
2021/10/01 03:19:03;;;;;;;6.60;1.73;;;14.60;77.00;;;;;;5039160;28;20489;-75
2021/10/01 03:21:30;;;;;;;4.22;1.45;;;14.60;77.00;;;;;;5039620;28;20472;-76
2021/10/01 03:23:56;;;;;;;7.05;1.63;;;14.60;76.10;;;;;;5039129;28;20025;-76
2021/10/01 03:26:25;;;;;;;5.57;1.30;;;14.50;76.70;;;;;;5039489;28;20079;-75
2021/10/01 03:28:51;;;;;;;7.25;1.42;;;14.60;75.90;;;;;;5039507;28;20481;-76
2021/10/01 03:31:17;;;;;;;7.72;1.80;;;14.50;75.40;;;;;;5039098;28;20044;-75
2021/10/01 03:33:45;;;;;;;5.40;1.80;;;14.50;76.00;;;;;;5038819;28;20037;-75
2021/10/01 03:36:12;;;;;;;4.28;1.45;;;14.60;76.20;;;;;;5038616;28;20057;-75
2021/10/01 03:38:38;;;;;;;8.90;1.65;;;14.60;76.10;;;;;;5039212;28;20484;-76
2021/10/01 03:41:04;;;;;;;6.00;1.48;;;14.50;76.50;;;;;;5039276;28;20021;-75
2021/10/01 03:43:31;;;;;;;6.10;1.30;;;14.60;76.30;;;;;;5037851;28;20109;-76
2021/10/01 03:45:57;;;;;;;3.83;1.15;;;14.60;76.60;;;;;;5038772;28;20024;-76
2021/10/01 03:48:24;;;;;;;8.38;1.67;;;14.60;76.50;;;;;;5038685;28;20432;-75
2021/10/01 03:50:50;;;;;;;7.10;1.52;;;14.60;76.90;;;;;;5038781;28;20020;-75
2021/10/01 03:53:16;;;;;;;4.43;1.65;;;14.70;77.10;;;;;;5038738;28;20511;-76
2021/10/01 03:55:42;;;;;;;6.85;1.92;;;14.70;77.20;;;;;;5038551;28;20484;-76
2021/10/01 03:58:08;;;;;;;7.20;1.52;;;14.70;77.10;;;;;;5038577;28;20033;-75
2021/10/01 04:00:35;;;;;;;7.35;1.63;;;14.70;77.40;;;;;;5037239;28;20039;-76
2021/10/01 04:03:00;;;;;;;4.70;1.33;;;14.80;77.20;;;;;;5037263;28;20111;-75
2021/10/01 04:05:26;;;;;;;6.65;1.55;;;14.70;76.60;;;;;;5038265;28;20021;-75
2021/10/01 04:07:52;;;;;;;6.63;1.52;;;14.80;76.50;;;;;;5035226;28;20101;-76
2021/10/01 04:10:18;;;;;;;6.28;1.40;;;14.70;77.10;;;;;;5036185;28;20516;-76
2021/10/01 04:12:44;;;;;;;6.82;1.90;;;14.80;78.00;;;;;;5037127;28;20512;-76
2021/10/01 04:15:11;;;;;;;8.38;1.60;;;14.70;77.20;;;;;;5038453;28;20025;-76
2021/10/01 04:17:37;;;;;;;7.60;1.70;;;14.70;77.20;;;;;;5038320;28;20544;-76
2021/10/01 04:20:05;;;;;;;7.57;1.50;;;14.70;76.70;;;;;;5036606;28;20068;-75
2021/10/01 04:22:31;;;;;;;8.23;1.90;;;14.70;77.20;;;;;;5038434;28;20071;-75
2021/10/01 04:24:57;;;;;;;8.52;1.92;;;14.60;77.00;;;;;;5037952;28;20096;-76
2021/10/01 04:27:22;;;;;;;5.97;1.65;;;14.60;76.90;;;;;;5038148;28;20025;-75
2021/10/01 04:29:48;;;;;;;7.20;1.90;;;14.60;78.30;;;;;;5037944;28;20079;-76
2021/10/01 04:32:14;;;;;;;5.75;2.00;;;14.60;77.50;;;;;;5037953;28;20388;-76
2021/10/01 04:34:56;;;;;;;5.30;1.80;;;14.60;77.30;;;;;;5037595;28;20072;-75
2021/10/01 04:37:22;;;;;;;5.32;1.60;;;14.60;77.10;;;;;;5036407;28;20575;-74
2021/10/01 04:39:48;;;;;;;5.55;1.85;;;14.60;77.70;;;;;;5038144;28;20026;-76
2021/10/01 04:42:13;;;;;;;7.47;1.90;;;14.60;77.80;;;;;;5037917;28;20104;-72
2021/10/01 04:44:39;;;;;;;7.68;2.15;;;14.60;77.20;;;;;;5037940;28;20044;-79
2021/10/01 04:47:05;;;;;;;11.13;2.28;;;14.60;77.70;;;;;;5037914;28;20112;-76
2021/10/01 04:49:31;;;;;;;7.95;1.67;;;14.60;78.10;;;;;;5037603;28;20174;-72
2021/10/01 04:51:57;;;;;;;7.68;1.42;;;14.60;78.10;;;;;;5037579;28;20032;-78
2021/10/01 04:54:22;;;;;;;7.05;1.80;;;14.60;78.10;;;;;;5036953;28;20022;-76
2021/10/01 04:56:48;;;;;;;6.43;1.25;;;14.60;78.10;;;;;;5037866;28;20564;-76
2021/10/01 04:59:14;;;;;;;6.70;2.15;;;14.60;78.50;;;;;;5037778;28;20026;-76
2021/10/01 05:01:40;;;;;;;7.38;2.17;;;14.60;78.30;;;;;;5037447;28;20021;-74
2021/10/01 05:04:06;;;;;;;10.70;1.63;;;14.60;78.70;;;;;;5037371;28;20026;-77
2021/10/01 05:06:31;;;;;;;7.15;1.45;;;14.60;78.30;;;;;;5037330;28;20030;-76
2021/10/01 05:08:57;;;;;;;5.90;1.20;;;14.60;78.50;;;;;;5032107;28;20068;-81
2021/10/01 05:11:23;;;;;;;7.10;1.50;;;14.70;78.50;;;;;;5037588;28;20434;-79
2021/10/01 05:13:49;;;;;;;7.20;1.55;;;14.70;78.40;;;;;;5037613;28;20030;-78
2021/10/01 05:16:15;;;;;;;6.45;1.67;;;14.70;78.00;;;;;;5037358;28;20025;-78
2021/10/01 05:18:40;;;;;;;6.75;1.60;;;14.70;77.70;;;;;;5037334;28;20036;-73
2021/10/01 05:21:06;;;;;;;7.38;1.60;;;14.70;78.40;;;;;;5037110;28;20078;-77
2021/10/01 05:23:32;;;;;;;10.00;1.67;;;14.70;78.90;;;;;;5037180;28;20365;-75
2021/10/01 05:25:58;;;;;;;9.73;1.67;;;14.80;79.40;;;;;;5036862;28;20032;-75
2021/10/01 05:28:24;;;;;;;7.90;1.85;;;14.80;79.40;;;;;;5036897;28;20029;-74
2021/10/01 05:30:50;;;;;;;6.03;1.63;;;14.80;79.40;;;;;;5037044;28;20104;-75
2021/10/01 05:33:16;;;;;;;10.30;1.77;;;14.80;79.40;;;;;;5036737;28;20026;-75
2021/10/01 05:35:44;;;;;;;7.72;1.20;;;14.90;79.80;;;;;;5036870;28;20387;-75
2021/10/01 05:38:11;;;;;;;6.13;1.77;;;14.90;79.70;;;;;;5037103;28;20048;-75
2021/10/01 05:40:37;;;;;;;5.68;1.60;;;14.90;79.30;;;;;;5036795;28;20361;-75
2021/10/01 05:43:03;;;;;;;9.52;2.20;;;14.90;79.70;;;;;;5035649;28;20467;-74
2021/10/01 05:45:29;;;;;;;8.30;1.95;;;14.90;79.20;;;;;;5035513;28;20014;-74
2021/10/01 05:47:55;;;;;;;3.97;1.60;;;14.90;79.40;;;;;;5035624;28;20029;-74
2021/10/01 05:50:24;;;;;;;7.07;1.50;;;14.90;79.40;;;;;;5036750;28;20049;-75
2021/10/01 05:52:55;;;;;;;5.97;1.70;;;14.90;78.90;;;;;;5036965;28;20029;-74
2021/10/01 05:55:21;;;;;;;6.45;1.90;;;14.90;79.20;;;;;;5036655;28;20029;-74
2021/10/01 05:57:47;;;;;;;7.97;2.45;;;15.00;79.30;;;;;;5036780;28;20108;-75
2021/10/01 06:00:13;;;;;;;6.00;2.10;;;15.00;79.00;;;;;;5036785;28;20018;-76
2021/10/01 06:02:42;;;;;;;6.63;1.60;;;15.00;78.90;;;;;;5036861;28;20021;-76
2021/10/01 06:05:09;;;;;;;12.82;2.10;;;15.00;78.70;;;;;;5035780;28;20021;-76
2021/10/01 06:07:35;;;;;;;9.15;1.67;;;15.00;78.90;;;;;;5039354;28;20025;-75
2021/10/01 06:10:01;;;;;;;6.07;1.63;;;15.00;79.10;;;;;;5037551;28;20026;-75
2021/10/01 06:12:26;;;;;;;6.90;1.63;;;15.00;78.90;;;;;;5040975;28;20032;-75
2021/10/01 06:14:52;;;;;;;8.00;1.77;;;15.00;79.50;;;;;;5040243;28;20079;-75
2021/10/01 06:17:18;;;;;;;10.13;1.92;;;15.00;79.50;;;;;;5040244;28;20052;-76
2021/10/01 06:19:44;;;;;;;7.93;1.85;;;15.00;79.50;;;;;;5040113;28;20481;-75
2021/10/01 06:22:12;;;;;;;5.30;1.77;;;15.00;79.40;;;;;;5040317;28;20025;-77
2021/10/01 06:24:38;;;;;;;7.00;1.83;;;15.00;79.40;;;;;;5039777;28;20036;-78
2021/10/01 06:27:04;;;;;;;7.82;2.40;;;15.00;79.10;;;;;;5040198;28;20029;-78
2021/10/01 06:29:32;;;;;;;31.95;17.67;;;15.00;79.90;;;;;;5039569;28;20477;-78
2021/10/01 06:31:58;;;;;;;18.20;9.05;;;15.10;79.40;;;;;;5040021;28;20056;-79
2021/10/01 06:34:24;;;;;;;7.88;2.72;;;15.10;79.80;;;;;;5039524;28;20022;-77
2021/10/01 06:36:50;;;;;;;10.18;1.80;;;15.00;79.60;;;;;;5039089;28;20077;-77
2021/10/01 06:39:16;;;;;;;9.18;2.45;;;15.10;80.80;;;;;;5037826;28;20547;-77
2021/10/01 06:41:42;;;;;;;10.38;2.00;;;15.10;80.70;;;;;;5039559;28;20033;-77
2021/10/01 06:44:11;;;;;;;7.05;1.85;;;15.00;80.10;;;;;;5039807;28;20017;-77
2021/10/01 06:46:52;;;;;;;8.43;1.98;;;15.10;80.90;;;;;;5038932;28;20022;-77
2021/10/01 08:18:39;;;;;;;5.18;2.10;;;15.30;86.50;;;;;;5037658;28;20083;-75
2021/10/01 08:21:05;;;;;;;7.78;2.33;;;15.30;87.40;;;;;;5036413;28;20138;-78
2021/10/01 08:23:31;;;;;;;8.32;2.60;;;15.20;87.10;;;;;;5037886;28;20017;-75
2021/10/01 08:25:57;;;;;;;7.70;2.65;;;15.20;88.10;;;;;;5036221;28;20029;-74
2021/10/01 08:28:23;;;;;;;11.63;2.60;;;15.20;88.90;;;;;;5036800;28;20088;-75
2021/10/01 08:30:49;;;;;;;9.95;2.08;;;15.20;88.50;;;;;;5037625;28;20029;-75
2021/10/01 08:33:15;;;;;;;9.93;2.67;;;15.20;89.60;;;;;;5037717;28;20491;-75
2021/10/01 08:35:41;;;;;;;4.45;1.90;;;15.20;89.60;;;;;;5037240;28;20029;-75
2021/10/01 08:38:07;;;;;;;6.82;2.17;;;15.20;89.20;;;;;;5037560;28;20026;-76
2021/10/01 08:40:33;;;;;;;8.40;2.13;;;15.20;89.10;;;;;;5036274;28;20492;-75
2021/10/01 08:42:59;;;;;;;5.68;2.00;;;15.30;90.00;;;;;;5037640;28;20018;-75
2021/10/01 08:45:27;;;;;;;7.18;2.22;;;15.30;89.60;;;;;;5037313;28;20064;-74
2021/10/01 08:47:57;;;;;;;8.43;1.90;;;15.40;89.70;;;;;;5037615;28;20029;-75
2021/10/01 08:50:24;;;;;;;10.00;3.03;;;15.40;90.10;;;;;;5037371;28;20547;-75
2021/10/01 08:52:52;;;;;;;6.47;2.70;;;15.50;90.00;;;;;;5037243;28;20081;-76
2021/10/01 08:55:20;;;;;;;8.98;2.22;;;15.50;90.00;;;;;;5037265;28;20112;-75
2021/10/01 08:57:46;;;;;;;10.70;3.00;;;15.60;90.40;;;;;;5036914;28;20025;-76
2021/10/01 09:00:15;;;;;;;7.15;2.38;;;15.70;90.30;;;;;;5037054;28;20112;-78
2021/10/01 09:02:41;;;;;;;11.13;2.10;;;15.80;90.20;;;;;;5037336;28;20033;-75
2021/10/01 09:05:08;;;;;;;6.97;2.58;;;15.90;89.80;;;;;;5035625;28;20025;-75
2021/10/01 09:07:34;;;;;;;11.35;2.30;;;16.00;90.10;;;;;;5035221;28;20432;-79
2021/10/01 09:10:00;;;;;;;30.33;16.90;;;16.10;89.10;;;;;;5033772;28;20114;-78
2021/10/01 09:12:26;;;;;;;8.05;3.55;;;16.20;89.50;;;;;;5037242;28;20388;-76
2021/10/01 09:14:58;;;;;;;7.47;1.98;;;16.20;89.00;;;;;;5036880;28;20111;-76
2021/10/01 09:17:30;;;;;;;8.65;2.08;;;16.10;88.70;;;;;;5036903;28;20022;-75
2021/10/01 09:19:58;;;;;;;4.73;2.47;;;16.10;88.30;;;;;;5036940;28;20021;-75
2021/10/01 09:22:46;;;;;;;9.45;2.40;;;16.10;88.20;;;;;;5037006;28;20021;-76
2021/10/01 09:25:24;;;;;;;5.80;1.90;;;16.00;88.70;;;;;;5037044;28;20037;-76
2021/10/01 09:27:58;;;;;;;5.10;2.00;;;16.00;88.90;;;;;;5037013;28;20045;-76
2021/10/01 09:30:24;;;;;;;9.32;2.05;;;15.90;88.70;;;;;;5036943;28;20029;-76
2021/10/01 09:33:12;;;;;;;8.10;1.70;;;15.90;88.60;;;;;;5036295;28;20549;-76
2021/10/01 09:35:42;;;;;;;5.45;1.65;;;15.90;89.20;;;;;;5036636;28;20025;-76
2021/10/01 09:38:10;;;;;;;5.30;1.52;;;15.90;89.40;;;;;;5036296;28;20488;-75
2021/10/01 09:40:37;;;;;;;5.90;1.80;;;15.90;89.60;;;;;;5038790;28;20017;-76
2021/10/01 09:43:03;;;;;;;6.53;1.40;;;15.90;89.10;;;;;;5041017;28;20037;-76
2021/10/01 09:45:29;;;;;;;7.75;1.55;;;15.90;89.40;;;;;;5040772;28;20503;-76
2021/10/01 09:47:55;;;;;;;3.67;1.33;;;16.00;89.00;;;;;;5040457;28;20029;-76
2021/10/01 09:50:32;;;;;;;5.97;1.40;;;16.00;88.50;;;;;;5040807;28;20105;-76
2021/10/01 09:53:02;;;;;;;6.68;1.90;;;16.00;89.60;;;;;;5041299;28;20061;-75
2021/10/01 09:55:38;;;;;;;4.97;1.38;;;16.10;89.40;;;;;;5040662;28;20033;-76
2021/10/01 09:58:12;;;;;;;3.58;1.00;;;16.10;89.20;;;;;;5040318;28;20476;-77
2021/10/01 10:00:53;;;;;;;3.92;1.35;;;16.10;89.10;;;;;;5040303;28;20029;-76
2021/10/01 10:03:22;;;;;;;4.25;1.02;;;16.10;89.10;;;;;;5040422;28;20029;-75
2021/10/01 10:05:54;;;;;;;2.60;0.93;;;16.10;89.00;;;;;;5040819;28;20029;-76
2021/10/01 10:08:40;;;;;;;2.97;0.80;;;16.10;88.80;;;;;;5035295;28;20094;-77
2021/10/01 10:11:11;;;;;;;5.22;1.30;;;16.10;88.70;;;;;;5040771;28;20021;-76
2021/10/01 10:13:49;;;;;;;3.50;1.17;;;16.10;89.00;;;;;;5040488;28;20100;-75
2021/10/01 10:16:26;;;;;;;4.38;1.10;;;16.10;90.00;;;;;;5040198;28;20065;-75
2021/10/01 10:18:58;;;;;;;5.40;1.30;;;16.10;90.10;;;;;;5039885;28;20745;-76
2021/10/01 10:21:24;;;;;;;4.38;1.50;;;16.00;89.60;;;;;;5040318;28;20024;-76
2021/10/01 10:23:51;;;;;;;7.43;1.33;;;16.00;90.00;;;;;;5040064;28;20022;-75
2021/10/01 10:26:17;;;;;;;4.75;1.30;;;16.00;90.10;;;;;;5038990;28;20037;-76
2021/10/01 10:28:45;;;;;;;5.60;1.40;;;16.00;90.10;;;;;;5039164;28;20017;-76
2021/10/01 10:31:12;;;;;;;3.83;1.08;;;16.00;89.90;;;;;;5039621;28;20630;-76
2021/10/01 10:33:41;;;;;;;5.75;1.40;;;16.00;89.90;;;;;;5039524;28;20045;-77
2021/10/01 10:36:26;;;;;;;4.30;1.00;;;16.00;90.30;;;;;;5039678;28;20060;-75
2021/10/01 10:38:52;;;;;;;3.22;1.20;;;16.00;90.40;;;;;;5038518;28;20033;-75
2021/10/01 10:41:27;;;;;;;3.13;0.90;;;16.10;90.90;;;;;;5040117;28;20480;-75
2021/10/01 10:43:53;;;;;;;3.92;0.98;;;16.10;90.70;;;;;;5038462;28;20040;-75
2021/10/01 10:46:37;;;;;;;4.30;1.05;;;16.20;90.60;;;;;;5039572;28;20025;-76
2021/10/01 10:49:21;;;;;;;2.88;1.00;;;16.30;90.50;;;;;;5038596;28;20033;-76
2021/10/01 10:52:16;;;;;;;1.95;0.80;;;16.40;90.40;;;;;;5038123;28;20033;-76
2021/10/01 10:54:48;;;;;;;3.45;0.98;;;16.40;90.40;;;;;;5039383;28;20028;-77
2021/10/01 10:57:17;;;;;;;3.43;1.00;;;16.50;90.40;;;;;;5039157;28;20026;-77
2021/10/01 10:59:43;;;;;;;3.33;0.73;;;16.60;90.00;;;;;;5039464;28;20362;-77
2021/10/01 11:02:41;;;;;;;2.40;0.65;;;16.60;89.90;;;;;;5039524;28;20030;-77
2021/10/01 11:05:26;;;;;;;3.45;1.25;;;16.80;90.30;;;;;;5039581;28;20732;-77
2021/10/01 11:08:16;;;;;;;2.05;0.70;;;16.90;89.60;;;;;;5035757;28;20497;-77
2021/10/01 11:10:47;;;;;;;2.72;0.85;;;17.00;89.60;;;;;;5027521;28;20038;-77
2021/10/01 11:13:19;;;;;;;1.77;0.68;;;17.00;88.60;;;;;;5039576;28;20033;-76
2021/10/01 11:16:17;;;;;;;2.97;0.82;;;17.10;88.60;;;;;;5039214;28;20065;-76
2021/10/01 11:18:47;;;;;;;1.30;0.68;;;17.20;88.10;;;;;;5033953;28;20033;-77
2021/10/01 11:21:28;;;;;;;2.05;0.60;;;17.30;87.80;;;;;;5037650;28;20037;-77
2021/10/01 11:24:06;;;;;;;2.03;0.80;;;17.50;88.40;;;;;;5037660;28;20028;-77
2021/10/01 11:26:34;;;;;;;2.97;0.73;;;17.50;87.20;;;;;;5038919;28;20056;-78
2021/10/01 11:29:02;;;;;;;2.83;0.77;;;17.60;87.10;;;;;;5039052;28;20018;-77
2021/10/01 11:31:41;;;;;;;2.42;0.82;;;17.60;86.80;;;;;;5038447;28;20029;-78
2021/10/01 11:34:08;;;;;;;2.40;0.70;;;17.60;86.70;;;;;;5027782;28;20021;-76
2021/10/01 11:36:39;;;;;;;1.98;0.70;;;17.60;86.80;;;;;;5037474;28;20053;-74
2021/10/01 11:39:07;;;;;;;3.47;1.08;;;17.70;87.30;;;;;;5037757;28;20013;-75
2021/10/01 11:41:37;;;;;;;3.72;0.80;;;17.80;86.90;;;;;;5037499;28;20049;-75
2021/10/01 11:44:05;;;;;;;4.22;1.05;;;17.90;87.50;;;;;;5038525;28;20028;-79
2021/10/01 11:46:45;;;;;;;3.30;0.95;;;18.00;86.80;;;;;;5037109;28;20017;-78
2021/10/01 11:49:20;;;;;;;3.95;0.90;;;18.10;87.40;;;;;;5037207;28;20018;-73
2021/10/01 11:52:12;;;;;;;7.10;3.60;;;18.30;87.80;;;;;;5038354;28;20021;-74
2021/10/01 11:54:53;;;;;;;6.88;2.95;;;18.40;86.90;;;;;;5038468;28;20026;-73
2021/10/01 11:57:19;;;;;;;2.65;1.20;;;18.40;86.40;;;;;;5038379;28;20041;-79
2021/10/01 11:59:49;;;;;;;4.53;1.00;;;18.40;86.90;;;;;;5038428;28;20045;-80
2021/10/01 12:02:29;;;;;;;20.15;15.40;;;18.40;86.40;;;;;;5038109;28;20045;-76
2021/10/01 12:04:55;;;;;;;10.70;7.90;;;18.70;87.10;;;;;;5035757;28;20161;-77
2021/10/01 12:07:21;;;;;;;4.82;1.77;;;18.90;86.70;;;;;;5038384;28;20183;-79
2021/10/01 12:10:08;;;;;;;4.05;1.00;;;19.10;86.20;;;;;;5027421;28;20072;-79
2021/10/01 12:12:34;;;;;;;3.08;0.90;;;19.20;85.40;;;;;;5037681;28;20029;-78
2021/10/01 12:15:00;;;;;;;1.55;0.70;;;19.20;85.20;;;;;;5038130;28;20032;-79
2021/10/01 12:17:26;;;;;;;3.00;1.05;;;19.30;84.60;;;;;;5036527;28;20029;-79
2021/10/01 12:19:59;;;;;;;5.18;1.10;;;19.30;84.40;;;;;;5038036;28;20021;-79
2021/10/01 12:22:28;;;;;;;2.92;0.70;;;19.40;84.30;;;;;;5037847;28;20025;-79
2021/10/01 12:24:55;;;;;;;3.63;0.73;;;19.40;84.10;;;;;;5037911;28;20021;-79
2021/10/01 12:27:39;;;;;;;4.65;0.93;;;19.50;84.10;;;;;;5037756;28;20098;-78
2021/10/01 12:30:09;;;;;;;4.82;1.42;;;19.50;83.50;;;;;;5037630;28;20029;-79
2021/10/01 12:32:35;;;;;;;4.57;1.10;;;19.50;83.50;;;;;;5037669;28;20033;-79
2021/10/01 12:35:12;;;;;;;2.72;1.00;;;19.50;83.40;;;;;;5114906;27;20448;-78
2021/10/01 12:37:41;;;;;;;3.78;0.90;;;19.70;83.60;;;;;;5113331;28;20035;-79
2021/10/01 12:40:08;;;;;;;4.50;1.23;;;19.80;83.30;;;;;;5114811;28;20031;-78
2021/10/01 12:42:37;;;;;;;3.60;0.80;;;19.90;83.20;;;;;;5114713;28;20555;-78
2021/10/01 12:45:20;;;;;;;2.78;1.00;;;20.10;83.40;;;;;;5113734;28;20024;-78
2021/10/01 12:47:48;;;;;;;2.92;0.88;;;20.20;81.80;;;;;;5112867;28;20106;-78
2021/10/01 12:50:21;;;;;;;3.47;1.08;;;20.20;80.90;;;;;;5114849;28;20028;-78
2021/10/01 12:52:56;;;;;;;3.70;0.95;;;20.20;81.00;;;;;;5115031;28;20020;-77
2021/10/01 12:55:22;;;;;;;3.85;1.58;;;20.20;80.90;;;;;;5114403;28;20024;-77
2021/10/01 12:57:51;;;;;;;3.95;0.98;;;20.20;80.70;;;;;;5114200;28;20019;-76
2021/10/01 13:00:22;;;;;;;3.90;1.00;;;20.30;80.50;;;;;;5114703;28;20030;-76
2021/10/01 13:02:58;;;;;;;3.42;1.20;;;20.30;80.10;;;;;;5114463;28;20070;-77
2021/10/01 13:05:40;;;;;;;2.42;0.90;;;20.30;80.10;;;;;;5114774;28;20024;-78
2021/10/01 13:08:08;;;;;;;4.28;0.95;;;20.40;80.20;;;;;;5109061;28;20039;-78
2021/10/01 13:10:48;;;;;;;3.90;1.42;;;20.30;79.80;;;;;;5094117;28;20035;-77
2021/10/01 13:13:19;;;;;;;2.95;1.23;;;20.30;80.20;;;;;;5092456;28;20023;-78
2021/10/01 13:16:03;;;;;;;4.57;1.08;;;20.40;80.60;;;;;;5094251;28;20066;-78
2021/10/01 13:18:36;;;;;;;3.60;1.10;;;20.40;79.40;;;;;;5102130;28;20024;-78
2021/10/01 13:21:02;;;;;;;4.15;1.52;;;20.40;79.70;;;;;;5112703;28;20027;-78
2021/10/01 13:23:41;;;;;;;4.03;0.95;;;20.40;79.70;;;;;;5112798;28;20487;-78
2021/10/01 13:26:17;;;;;;;2.75;1.30;;;20.50;79.50;;;;;;5112702;28;20470;-78
2021/10/01 13:28:49;;;;;;;3.63;1.20;;;20.50;79.40;;;;;;5114444;28;20061;-76
2021/10/01 13:31:17;;;;;;;3.67;1.10;;;20.60;79.00;;;;;;5112918;28;20032;-78
2021/10/01 13:33:43;;;;;;;4.60;1.77;;;20.60;78.70;;;;;;5099430;28;20146;-77
2021/10/01 13:36:09;;;;;;;4.22;1.27;;;20.60;78.70;;;;;;5103965;28;20025;-77
2021/10/01 13:38:38;;;;;;;8.88;1.90;;;20.60;77.50;;;;;;5091991;28;20107;-77
2021/10/01 13:41:06;;;;;;;4.00;1.45;;;20.50;77.40;;;;;;5100748;28;20024;-77
2021/10/01 13:43:32;;;;;;;4.57;1.17;;;20.50;77.40;;;;;;5114054;28;20027;-77
2021/10/01 13:45:59;;;;;;;5.63;1.40;;;20.40;75.30;;;;;;5101960;28;20028;-77
2021/10/01 13:48:26;;;;;;;6.28;1.35;;;20.30;75.10;;;;;;5099778;28;20081;-77
2021/10/01 13:50:53;;;;;;;4.78;1.52;;;20.20;71.70;;;;;;5099895;28;20436;-77
2021/10/01 13:53:20;;;;;;;5.82;1.83;;;20.10;72.90;;;;;;5099297;28;20060;-77
2021/10/01 13:55:46;;;;;;;6.47;1.77;;;19.90;73.00;;;;;;5097231;28;20050;-77
2021/10/01 13:58:12;;;;;;;4.15;1.38;;;19.80;74.30;;;;;;5084045;28;20044;-77
2021/10/01 14:00:38;;;;;;;5.40;1.42;;;19.80;72.60;;;;;;5104448;28;20016;-77
2021/10/01 14:03:05;;;;;;;6.50;1.80;;;19.70;74.10;;;;;;5077933;28;20074;-77
2021/10/01 14:05:31;;;;;;;7.72;1.80;;;19.80;74.80;;;;;;5079608;28;20029;-77
2021/10/01 14:07:57;;;;;;;4.03;1.60;;;19.80;74.00;;;;;;5080520;28;20078;-76
2021/10/01 14:10:25;;;;;;;5.10;1.23;;;19.80;74.10;;;;;;5098214;28;20053;-78
2021/10/01 14:12:52;;;;;;;3.47;1.20;;;19.70;74.20;;;;;;5097438;28;20111;-77
2021/10/01 14:15:20;;;;;;;6.05;1.23;;;19.60;74.10;;;;;;5087740;28;20819;-77
2021/10/01 14:17:47;;;;;;;5.60;1.30;;;19.50;74.40;;;;;;5084847;28;20434;-76
2021/10/01 14:20:16;;;;;;;7.82;3.50;;;19.50;74.80;;;;;;5099491;28;20055;-80
2021/10/01 14:22:43;;;;;;;7.07;2.20;;;19.50;74.70;;;;;;5099236;28;20023;-79
2021/10/01 14:25:10;;;;;;;5.85;2.13;;;19.40;74.70;;;;;;5099143;28;20051;-80
2021/10/01 14:27:37;;;;;;;4.50;1.38;;;19.30;74.00;;;;;;5098065;28;20020;-78